createdAt,value
2023-04-28T00:00:03.442Z,54.87
2023-04-28T00:02:51.316Z,55.08
2023-04-28T00:05:19.799Z,54.98
2023-04-28T00:07:47.825Z,55.21
2023-04-28T00:10:16.259Z,55.23
2023-04-28T00:12:43.993Z,55.20
2023-04-28T00:15:13.497Z,55.15
2023-04-28T00:17:41.377Z,55.47
2023-04-28T00:20:09.983Z,55.32
2023-04-28T00:25:23.807Z,55.57
2023-04-28T00:28:08.978Z,55.36
2023-04-28T00:30:55.694Z,55.65
2023-04-28T00:33:23.427Z,55.37
2023-04-28T00:35:59.417Z,55.71
2023-04-28T00:38:27.302Z,55.65
2023-04-28T00:40:55.093Z,55.50
2023-04-28T00:43:22.901Z,55.73
2023-04-28T00:45:51.092Z,55.62
2023-04-28T00:48:19.622Z,55.61
2023-04-28T00:50:48.495Z,55.68
2023-04-28T00:53:16.528Z,55.83
2023-04-28T00:55:46.953Z,55.74
2023-04-28T00:58:14.738Z,56.06
2023-04-28T01:00:43.464Z,56.03
2023-04-28T01:03:11.346Z,55.93
2023-04-28T01:05:39.501Z,56.16
2023-04-28T01:08:29.030Z,56.04
2023-04-28T01:10:57.311Z,56.11
2023-04-28T01:13:25.166Z,56.12
2023-04-28T01:15:52.976Z,56.35
2023-04-28T01:18:21.083Z,56.27
2023-04-28T01:20:49.255Z,56.19
2023-04-28T01:23:18.039Z,56.30
2023-04-28T01:25:45.837Z,56.28
2023-04-28T01:28:13.609Z,56.51
2023-04-28T01:30:41.375Z,56.34
2023-04-28T01:33:09.764Z,56.66
2023-04-28T01:35:38.334Z,56.60
2023-04-28T01:38:06.175Z,56.49
2023-04-28T01:40:34.372Z,56.63
2023-04-28T01:43:02.178Z,56.32
2023-04-28T01:45:29.873Z,56.50
2023-04-28T01:47:58.193Z,56.86
2023-04-28T01:50:45.531Z,56.45
2023-04-28T01:53:14.354Z,56.77
2023-04-28T01:55:42.156Z,56.68
2023-04-28T01:58:10.784Z,56.82
2023-04-28T02:00:39.204Z,56.68
2023-04-28T02:03:07.024Z,56.65
2023-04-28T02:05:34.834Z,56.65
2023-04-28T02:08:02.641Z,56.87
2023-04-28T02:10:30.476Z,56.80
2023-04-28T02:12:58.756Z,57.28
2023-04-28T02:15:27.198Z,57.16
2023-04-28T02:17:55.091Z,57.17
2023-04-28T02:20:22.881Z,57.13
2023-04-28T02:22:50.711Z,57.35
2023-04-28T02:25:18.606Z,57.17
2023-04-28T02:27:46.969Z,57.09
2023-04-28T02:30:15.415Z,57.32
2023-04-28T02:32:43.175Z,57.30
2023-04-28T02:35:10.999Z,57.42
2023-04-28T02:37:38.858Z,57.36
2023-04-28T02:40:07.900Z,57.25
2023-04-28T02:42:36.280Z,57.28
2023-04-28T02:45:05.967Z,57.30
2023-04-28T02:47:33.805Z,57.42
2023-04-28T02:50:01.612Z,57.36
2023-04-28T02:52:29.407Z,57.55
2023-04-28T02:54:58.036Z,57.67
2023-04-28T02:57:26.793Z,57.45
2023-04-28T02:59:54.547Z,57.85
2023-04-28T03:02:23.409Z,57.68
2023-04-28T03:04:51.695Z,57.57
2023-04-28T03:07:19.493Z,57.75
2023-04-28T03:09:48.631Z,57.51
2023-04-28T03:12:16.455Z,57.94
2023-04-28T03:14:44.198Z,57.68
2023-04-28T03:17:14.433Z,57.80
2023-04-28T03:19:42.195Z,58.01
2023-04-28T03:22:09.910Z,58.04
2023-04-28T03:24:37.663Z,58.11
2023-04-28T03:27:06.021Z,58.02
2023-04-28T03:29:33.769Z,58.38
2023-04-28T03:32:01.639Z,57.81
2023-04-28T03:34:29.507Z,57.90
2023-04-28T03:36:57.288Z,58.30
2023-04-28T03:39:25.039Z,58.25
2023-04-28T03:41:52.809Z,58.30
2023-04-28T03:44:21.701Z,58.16
2023-04-28T03:46:49.939Z,58.40
2023-04-28T03:49:17.675Z,58.59
2023-04-28T03:51:45.570Z,58.52
2023-04-28T03:54:13.620Z,58.49
2023-04-28T03:56:42.063Z,58.48
2023-04-28T03:59:11.864Z,58.40
2023-04-28T04:01:39.836Z,58.54
2023-04-28T04:04:08.050Z,58.67
2023-04-28T04:06:36.218Z,58.95
2023-04-28T04:09:04.179Z,58.89
2023-04-28T04:11:31.928Z,58.62
2023-04-28T04:13:59.816Z,58.53
2023-04-28T04:16:27.809Z,58.77
2023-04-28T04:18:55.578Z,58.75
2023-04-28T04:21:23.762Z,59.06
2023-04-28T04:23:51.593Z,59.11
2023-04-28T04:26:19.665Z,59.31
2023-04-28T04:28:47.372Z,59.30
2023-04-28T04:31:15.631Z,59.37
2023-04-28T04:33:43.835Z,59.26
2023-04-28T04:36:12.201Z,58.97
2023-04-28T04:38:40.594Z,59.18
2023-04-28T04:41:08.425Z,59.31
2023-04-28T04:43:36.128Z,59.33
2023-04-28T04:46:04.322Z,59.43
2023-04-28T04:48:32.797Z,59.14
2023-04-28T04:51:00.563Z,59.31
2023-04-28T04:53:28.344Z,59.49
2023-04-28T04:55:56.572Z,59.62
2023-04-28T04:58:24.924Z,59.73
2023-04-28T05:00:52.783Z,59.91
2023-04-28T05:03:21.126Z,59.66
2023-04-28T05:05:49.556Z,59.57
2023-04-28T05:08:17.583Z,60.11
2023-04-28T05:10:45.605Z,59.89
2023-04-28T05:13:13.429Z,59.98
2023-04-28T05:15:41.277Z,60.01
2023-04-28T05:18:11.142Z,60.01
2023-04-28T05:20:39.810Z,60.09
2023-04-28T05:23:08.273Z,60.13
2023-04-28T05:25:36.143Z,60.24
2023-04-28T05:28:07.676Z,60.38
2023-04-28T05:30:35.643Z,60.47
2023-04-28T05:33:03.515Z,60.39
2023-04-28T05:35:32.054Z,60.30
2023-04-28T05:37:59.927Z,60.52
2023-04-28T05:40:28.914Z,60.53
2023-04-28T05:42:56.748Z,60.34
2023-04-28T05:45:25.492Z,60.22
2023-04-28T05:47:53.879Z,60.57
2023-04-28T05:50:21.889Z,60.52
2023-04-28T05:52:49.703Z,60.66
2023-04-28T05:55:17.648Z,60.89
2023-04-28T05:57:52.240Z,60.99
2023-04-28T06:00:22.160Z,60.90
2023-04-28T06:02:50.136Z,60.75
2023-04-28T06:05:19.362Z,60.59
2023-04-28T06:12:06.369Z,60.90
2023-04-28T06:17:45.597Z,60.68
2023-04-28T06:20:14.256Z,60.72
2023-04-28T06:22:43.237Z,60.83
2023-04-28T06:25:11.082Z,60.89
2023-04-28T06:27:38.954Z,60.72
2023-04-28T06:30:07.428Z,60.84
2023-04-28T06:32:36.049Z,60.99
2023-04-28T06:35:04.252Z,60.71
2023-04-28T06:37:32.636Z,60.53
2023-04-28T06:40:00.424Z,60.75
2023-04-28T06:42:28.641Z,60.63
2023-04-28T06:44:56.863Z,60.57
2023-04-28T06:47:24.990Z,60.65
2023-04-28T06:49:52.889Z,60.73
2023-04-28T06:52:33.370Z,60.53
2023-04-28T06:55:09.574Z,60.69
2023-04-28T06:57:38.347Z,60.66
2023-04-28T07:00:08.202Z,60.58
2023-04-28T07:02:37.275Z,60.78
2023-04-28T07:05:05.731Z,60.73
2023-04-28T07:07:33.971Z,60.55
2023-04-28T07:10:02.468Z,60.61
2023-04-28T07:12:30.310Z,60.69
2023-04-28T07:14:58.143Z,60.48
2023-04-28T07:17:26.578Z,60.65
2023-04-28T07:19:54.864Z,60.57
2023-04-28T07:22:22.835Z,60.39
2023-04-28T07:24:50.828Z,60.28
2023-04-28T07:27:18.718Z,60.34
2023-04-28T07:29:46.995Z,60.39
2023-04-28T07:32:15.636Z,60.29
2023-04-28T07:34:43.563Z,60.20
2023-04-28T07:37:12.086Z,60.27
2023-04-28T07:39:40.708Z,60.22
2023-04-28T07:42:08.665Z,60.02
2023-04-28T07:44:37.378Z,60.05
2023-04-28T07:47:05.865Z,60.30
2023-04-28T07:49:33.833Z,60.21
2023-04-28T07:52:02.014Z,60.04
2023-04-28T07:54:29.883Z,59.87
2023-04-28T07:56:58.195Z,59.86
2023-04-28T07:59:26.874Z,59.84
2023-04-28T08:01:54.780Z,59.37
2023-04-28T08:04:23.530Z,59.44
2023-04-28T08:06:55.203Z,59.60
2023-04-28T08:09:24.995Z,59.63
2023-04-28T08:11:53.386Z,59.64
2023-04-28T08:14:21.717Z,59.57
2023-04-28T08:16:49.835Z,59.60
2023-04-28T08:19:17.693Z,59.13
2023-04-28T08:21:45.518Z,58.22
2023-04-28T08:24:13.925Z,58.51
2023-04-28T08:26:42.679Z,58.42
2023-04-28T08:29:10.516Z,58.70
2023-04-28T08:31:44.772Z,58.48
2023-04-28T08:34:15.173Z,58.37
2023-04-28T08:36:44.714Z,58.34
2023-04-28T08:39:13.747Z,58.01
2023-04-28T08:41:41.774Z,58.07
2023-04-28T08:44:10.210Z,58.25
2023-04-28T08:46:42.358Z,58.39
2023-04-28T08:49:18.789Z,58.10
2023-04-28T08:51:59.320Z,57.84
2023-04-28T08:54:36.550Z,57.58
2023-04-28T08:57:05.932Z,57.54
2023-04-28T09:00:00.778Z,57.55
2023-04-28T09:02:29.278Z,56.85
2023-04-28T09:04:57.884Z,56.64
2023-04-28T09:07:25.964Z,56.73
2023-04-28T09:10:17.360Z,57.27
2023-04-28T09:12:58.592Z,56.73
2023-04-28T09:15:37.884Z,56.66
2023-04-28T09:18:08.099Z,56.65
2023-04-28T09:20:38.565Z,56.44
2023-04-28T09:23:14.854Z,56.59
2023-04-28T09:26:07.458Z,56.37
2023-04-28T09:28:39.494Z,56.33
2023-04-28T09:31:48.611Z,56.44
2023-04-28T09:34:19.857Z,56.30
2023-04-28T09:36:48.924Z,56.31
2023-04-28T09:39:30.409Z,55.98
2023-04-28T09:41:59.187Z,56.12
2023-04-28T09:44:27.523Z,55.54
2023-04-28T09:46:56.135Z,54.96
2023-04-28T09:49:23.968Z,54.77
2023-04-28T09:51:51.787Z,54.78
2023-04-28T09:54:21.931Z,55.22
2023-04-28T09:56:51.952Z,55.10
2023-04-28T09:59:21.659Z,55.06
2023-04-28T10:07:38.823Z,54.45
